createdAt,value
2018-07-30T00:00:05.584Z,0
2018-07-30T00:01:06.333Z,0
2018-07-30T00:02:07.066Z,0
2018-07-30T00:03:08.051Z,0
2018-07-30T00:04:08.779Z,0
2018-07-30T00:05:09.504Z,0
2018-07-30T00:06:10.250Z,0
2018-07-30T00:07:11.011Z,0
2018-07-30T00:08:12.088Z,0
2018-07-30T00:09:12.812Z,0
2018-07-30T00:10:13.943Z,0
2018-07-30T00:11:14.727Z,0
2018-07-30T00:12:15.497Z,0
2018-07-30T00:13:16.288Z,0
2018-07-30T00:14:17.043Z,0
2018-07-30T00:15:17.754Z,0
2018-07-30T00:16:18.497Z,0
2018-07-30T00:17:19.240Z,0
2018-07-30T00:18:19.990Z,0
2018-07-30T00:19:20.712Z,0
2018-07-30T00:20:21.432Z,0
2018-07-30T00:21:22.205Z,0
2018-07-30T00:22:22.906Z,0
2018-07-30T00:23:23.630Z,0
2018-07-30T00:24:24.367Z,0
2018-07-30T00:25:25.107Z,0
2018-07-30T00:26:25.821Z,0
2018-07-30T00:27:26.558Z,0
2018-07-30T00:28:27.588Z,0
2018-07-30T00:29:28.312Z,0
2018-07-30T00:30:29.053Z,0
2018-07-30T00:31:29.845Z,0
2018-07-30T00:32:30.540Z,0
2018-07-30T00:33:31.574Z,0
2018-07-30T00:34:32.296Z,0
2018-07-30T00:35:33.031Z,0
2018-07-30T00:36:33.754Z,0
2018-07-30T00:37:34.751Z,0
2018-07-30T00:38:35.472Z,0
2018-07-30T00:39:36.205Z,0
2018-07-30T00:40:36.954Z,0
2018-07-30T00:41:37.663Z,0
2018-07-30T00:42:38.706Z,0
2018-07-30T00:43:39.421Z,0
2018-07-30T00:44:40.147Z,0
2018-07-30T00:45:40.872Z,0
2018-07-30T00:46:41.615Z,0
2018-07-30T00:47:42.381Z,0
2018-07-30T00:48:43.347Z,0
2018-07-30T00:49:44.070Z,0
2018-07-30T00:50:44.797Z,0
2018-07-30T00:51:45.544Z,0
2018-07-30T00:52:46.321Z,0
2018-07-30T00:53:47.042Z,0
2018-07-30T00:54:47.773Z,0
2018-07-30T00:55:48.501Z,0
2018-07-30T00:56:49.540Z,0
2018-07-30T00:57:50.569Z,0
2018-07-30T00:58:51.552Z,0
2018-07-30T00:59:52.279Z,0
2018-07-30T01:00:53.257Z,0
2018-07-30T01:01:53.980Z,0
2018-07-30T01:02:54.760Z,0
2018-07-30T01:03:55.496Z,0
2018-07-30T01:04:56.222Z,0
2018-07-30T01:05:57.203Z,0
2018-07-30T01:06:57.930Z,0
2018-07-30T01:07:58.653Z,0
2018-07-30T01:08:59.727Z,0
2018-07-30T01:10:00.440Z,0
2018-07-30T01:11:01.431Z,0
2018-07-30T01:12:02.151Z,0
2018-07-30T01:13:02.866Z,0
2018-07-30T01:14:03.954Z,0
2018-07-30T01:15:04.673Z,0
2018-07-30T01:16:05.651Z,0
2018-07-30T01:17:06.633Z,0
2018-07-30T01:18:07.633Z,0
2018-07-30T01:19:08.399Z,0
2018-07-30T01:20:09.125Z,0
2018-07-30T01:21:09.853Z,0
2018-07-30T01:22:10.691Z,0
2018-07-30T01:23:11.599Z,0
2018-07-30T01:24:12.372Z,0
2018-07-30T01:25:13.233Z,0
2018-07-30T01:26:14.120Z,0
2018-07-30T01:27:14.879Z,0
2018-07-30T01:28:15.698Z,0
2018-07-30T01:29:16.506Z,0
2018-07-30T01:30:17.323Z,0
2018-07-30T01:31:18.228Z,0
2018-07-30T01:32:19.155Z,0
2018-07-30T01:33:19.905Z,0
2018-07-30T01:34:20.654Z,0
2018-07-30T01:35:21.931Z,0
2018-07-30T01:36:23.354Z,0
2018-07-30T01:37:24.506Z,0
2018-07-30T01:38:25.266Z,0
2018-07-30T01:39:26.404Z,0
2018-07-30T01:40:27.141Z,0
2018-07-30T01:41:28.472Z,0
2018-07-30T01:42:29.241Z,0
2018-07-30T01:43:30.190Z,0
2018-07-30T01:44:30.946Z,0
2018-07-30T01:45:31.733Z,0
2018-07-30T01:46:32.602Z,0
2018-07-30T01:47:33.391Z,0
2018-07-30T01:48:34.186Z,0
2018-07-30T01:49:34.992Z,0
2018-07-30T01:50:35.752Z,0
2018-07-30T01:51:36.505Z,0
2018-07-30T01:52:37.527Z,0
2018-07-30T01:53:38.250Z,0
2018-07-30T01:54:39.098Z,0
2018-07-30T01:55:39.824Z,0
2018-07-30T01:56:40.551Z,0
2018-07-30T01:57:41.268Z,0
2018-07-30T01:58:41.994Z,0
2018-07-30T01:59:42.717Z,0
2018-07-30T02:00:43.999Z,0
2018-07-30T02:01:44.732Z,0
2018-07-30T02:02:45.716Z,0
2018-07-30T02:03:46.438Z,0
2018-07-30T02:04:47.173Z,0
2018-07-30T02:05:47.898Z,0
2018-07-30T02:06:48.624Z,0
2018-07-30T02:07:49.352Z,0
2018-07-30T02:08:50.088Z,0
2018-07-30T02:09:50.800Z,0
2018-07-30T02:10:51.522Z,0
2018-07-30T02:11:52.264Z,0
2018-07-30T02:12:52.982Z,0
2018-07-30T02:13:53.699Z,0
2018-07-30T02:14:54.675Z,0
2018-07-30T02:15:55.642Z,0
2018-07-30T02:16:56.366Z,0
2018-07-30T02:17:57.087Z,0
2018-07-30T02:18:57.804Z,0
2018-07-30T02:19:58.548Z,0
2018-07-30T02:20:59.281Z,0
2018-07-30T02:22:00.005Z,0
2018-07-30T02:23:00.722Z,0
2018-07-30T02:24:01.455Z,0
2018-07-30T02:25:02.187Z,0
2018-07-30T02:26:02.910Z,0
2018-07-30T02:27:03.893Z,0
2018-07-30T02:28:04.595Z,0
2018-07-30T02:29:05.327Z,0
2018-07-30T02:30:06.047Z,0
2018-07-30T02:31:06.778Z,0
2018-07-30T02:32:07.490Z,0
2018-07-30T02:33:08.209Z,0
2018-07-30T02:34:08.930Z,0
2018-07-30T02:35:09.656Z,0
2018-07-30T02:36:10.637Z,0
2018-07-30T02:37:11.351Z,0
2018-07-30T02:38:12.077Z,0
2018-07-30T02:39:12.788Z,0
2018-07-30T02:40:13.520Z,0
2018-07-30T02:41:14.254Z,0
2018-07-30T02:42:15.029Z,0
2018-07-30T02:43:15.746Z,0
2018-07-30T02:44:16.466Z,0
2018-07-30T02:45:17.193Z,0
2018-07-30T02:46:17.921Z,0
2018-07-30T02:47:18.688Z,0
2018-07-30T02:48:19.414Z,0
2018-07-30T02:49:20.148Z,0
2018-07-30T02:50:20.865Z,0
2018-07-30T02:51:21.838Z,0
2018-07-30T02:52:22.553Z,0
2018-07-30T02:53:23.283Z,0
2018-07-30T02:54:24.017Z,0
2018-07-30T02:55:24.729Z,0
2018-07-30T02:56:25.457Z,0
2018-07-30T02:57:26.784Z,0
2018-07-30T02:58:27.497Z,0
2018-07-30T02:59:28.223Z,0
2018-07-30T03:00:28.956Z,0
2018-07-30T03:01:29.677Z,0
2018-07-30T03:02:30.401Z,0
2018-07-30T03:03:31.150Z,0
2018-07-30T03:04:32.125Z,0
2018-07-30T03:05:32.849Z,0
2018-07-30T03:06:33.865Z,0
2018-07-30T03:07:34.582Z,0
2018-07-30T03:08:35.304Z,0
2018-07-30T03:09:36.027Z,0
2018-07-30T03:10:36.753Z,0
2018-07-30T03:11:37.487Z,0
2018-07-30T03:12:38.224Z,0
2018-07-30T03:13:38.948Z,0
2018-07-30T03:14:39.672Z,0
2018-07-30T03:15:40.388Z,0
2018-07-30T03:16:41.109Z,0
2018-07-30T03:17:41.833Z,0
2018-07-30T03:18:42.808Z,0
2018-07-30T03:19:43.545Z,0
2018-07-30T03:20:44.266Z,0
2018-07-30T03:21:44.988Z,0
2018-07-30T03:22:45.708Z,0
2018-07-30T03:23:46.677Z,0
2018-07-30T03:24:47.948Z,0
2018-07-30T03:25:48.676Z,0
2018-07-30T03:26:49.413Z,0
2018-07-30T03:27:50.133Z,0
2018-07-30T03:28:50.956Z,0
2018-07-30T03:29:51.604Z,0
2018-07-30T03:30:52.324Z,0
2018-07-30T03:31:53.058Z,0
2018-07-30T03:32:53.788Z,5
2018-07-30T03:33:54.775Z,5
2018-07-30T03:34:55.749Z,5
2018-07-30T03:35:56.731Z,5
2018-07-30T03:36:57.457Z,5
2018-07-30T03:37:58.181Z,5
2018-07-30T03:38:59.158Z,5
2018-07-30T03:39:59.884Z,11
2018-07-30T03:41:00.890Z,11
2018-07-30T03:42:01.609Z,11
2018-07-30T03:43:02.336Z,11
2018-07-30T03:44:03.063Z,16
2018-07-30T03:45:04.043Z,16
2018-07-30T03:46:04.757Z,16
2018-07-30T03:47:05.732Z,16
2018-07-30T03:48:06.522Z,22
2018-07-30T03:49:07.205Z,22
2018-07-30T03:50:07.924Z,22
2018-07-30T03:51:08.648Z,22
2018-07-30T03:52:09.390Z,22
2018-07-30T03:53:10.108Z,22
2018-07-30T03:54:10.830Z,22
2018-07-30T03:55:11.562Z,28
2018-07-30T03:56:12.283Z,28
2018-07-30T03:57:13.019Z,28
2018-07-30T03:58:13.767Z,28
2018-07-30T03:59:14.536Z,28
2018-07-30T04:00:15.305Z,33
2018-07-30T04:01:16.028Z,33
2018-07-30T04:02:16.739Z,33
2018-07-30T04:03:17.469Z,39
2018-07-30T04:04:18.441Z,39
2018-07-30T04:05:19.192Z,39
2018-07-30T04:06:19.922Z,39
2018-07-30T04:07:20.644Z,45
2018-07-30T04:08:21.387Z,45
2018-07-30T04:09:22.107Z,50
2018-07-30T04:10:22.828Z,50
2018-07-30T04:11:23.548Z,50
2018-07-30T04:12:24.275Z,56
2018-07-30T04:13:25.005Z,56
2018-07-30T04:14:25.745Z,61
2018-07-30T04:15:26.488Z,67
2018-07-30T04:16:27.203Z,67
2018-07-30T04:17:27.927Z,73
2018-07-30T04:18:28.663Z,73
2018-07-30T04:19:29.393Z,78
2018-07-30T04:20:30.121Z,78
2018-07-30T04:21:30.861Z,84
2018-07-30T04:22:31.591Z,84
2018-07-30T04:23:32.597Z,84
2018-07-30T04:24:33.331Z,84
2018-07-30T04:25:34.065Z,90
2018-07-30T04:26:34.793Z,90
2018-07-30T04:27:35.522Z,95
2018-07-30T04:28:36.249Z,95
2018-07-30T04:29:36.973Z,101
2018-07-30T04:30:37.715Z,95
2018-07-30T04:31:38.454Z,95
2018-07-30T04:32:39.228Z,95
2018-07-30T04:33:39.948Z,95
2018-07-30T04:34:40.692Z,101
2018-07-30T04:35:41.427Z,95
2018-07-30T04:36:42.159Z,95
2018-07-30T04:37:42.902Z,95
2018-07-30T04:38:43.620Z,101
2018-07-30T04:39:44.610Z,101
2018-07-30T04:40:45.325Z,101
2018-07-30T04:41:46.062Z,101
2018-07-30T04:42:46.844Z,106
2018-07-30T04:43:47.624Z,106
2018-07-30T04:44:48.553Z,106
2018-07-30T04:45:49.276Z,112
2018-07-30T04:46:50.000Z,112
2018-07-30T04:47:50.786Z,112
2018-07-30T04:48:51.508Z,112
2018-07-30T04:49:52.232Z,112
2018-07-30T04:50:52.981Z,112
2018-07-30T04:51:53.696Z,118
2018-07-30T04:52:54.428Z,118
2018-07-30T04:53:55.163Z,118
2018-07-30T04:54:55.885Z,118
2018-07-30T04:55:56.657Z,123
2018-07-30T04:56:57.429Z,129
2018-07-30T04:57:58.110Z,129
2018-07-30T04:58:58.847Z,129
2018-07-30T04:59:59.573Z,129
2018-07-30T05:01:00.903Z,135
2018-07-30T05:02:01.629Z,140
2018-07-30T05:03:02.360Z,146
2018-07-30T05:04:03.087Z,146
2018-07-30T05:05:03.824Z,146
2018-07-30T05:06:04.554Z,146
2018-07-30T05:07:05.281Z,151
2018-07-30T05:08:06.022Z,151
2018-07-30T05:09:06.741Z,157
2018-07-30T05:10:07.493Z,157
2018-07-30T05:11:08.222Z,163
2018-07-30T05:12:08.956Z,168
2018-07-30T05:13:09.675Z,168
2018-07-30T05:14:10.414Z,168
2018-07-30T05:15:11.146Z,168
2018-07-30T05:16:11.877Z,168
2018-07-30T05:17:12.630Z,174
2018-07-30T05:18:13.401Z,174
2018-07-30T05:19:14.174Z,180
2018-07-30T05:20:14.850Z,180
2018-07-30T05:21:15.587Z,196
2018-07-30T05:22:16.318Z,208
2018-07-30T05:23:17.049Z,286
2018-07-30T05:24:18.115Z,326
2018-07-30T05:25:18.835Z,286
2018-07-30T05:26:19.569Z,298
2018-07-30T05:27:20.298Z,281
2018-07-30T05:28:21.291Z,298
2018-07-30T05:29:22.028Z,247
2018-07-30T05:30:22.770Z,303
2018-07-30T05:31:23.510Z,320
2018-07-30T05:32:24.488Z,264
2018-07-30T05:33:25.465Z,337
2018-07-30T05:34:26.499Z,410
2018-07-30T05:35:27.226Z,337
2018-07-30T05:36:28.510Z,309
2018-07-30T05:37:29.232Z,309
2018-07-30T05:38:29.971Z,270
2018-07-30T05:39:31.056Z,230
2018-07-30T05:40:31.782Z,292
2018-07-30T05:41:33.460Z,320
2018-07-30T05:42:34.583Z,523
2018-07-30T05:43:35.308Z,500
2018-07-30T05:44:36.032Z,298
2018-07-30T05:45:36.763Z,264
2018-07-30T05:46:37.513Z,247
2018-07-30T05:47:38.235Z,236
2018-07-30T05:48:38.970Z,241
2018-07-30T05:49:39.716Z,253
2018-07-30T05:50:40.455Z,258
2018-07-30T05:51:41.215Z,270
2018-07-30T05:52:41.937Z,281
2018-07-30T05:53:42.672Z,292
2018-07-30T05:54:43.914Z,309
2018-07-30T05:55:44.782Z,315
2018-07-30T05:56:45.887Z,309
2018-07-30T05:57:46.609Z,343
2018-07-30T05:58:47.349Z,348
2018-07-30T05:59:48.282Z,354
2018-07-30T06:00:49.337Z,365
2018-07-30T06:01:50.153Z,382
2018-07-30T06:02:50.873Z,388
2018-07-30T06:03:51.623Z,393
2018-07-30T06:04:52.692Z,393
2018-07-30T06:05:53.419Z,410
2018-07-30T06:06:54.192Z,410
2018-07-30T06:07:54.934Z,421
2018-07-30T06:08:55.670Z,433
2018-07-30T06:09:56.427Z,444
2018-07-30T06:10:57.185Z,450
2018-07-30T06:11:57.962Z,461
2018-07-30T06:12:58.697Z,461
2018-07-30T06:13:59.433Z,455
2018-07-30T06:15:00.165Z,450
2018-07-30T06:16:00.893Z,450
2018-07-30T06:17:01.672Z,461
2018-07-30T06:18:02.412Z,472
2018-07-30T06:19:03.150Z,500
2018-07-30T06:20:03.875Z,540
2018-07-30T06:21:04.714Z,590
2018-07-30T06:22:05.402Z,624
2018-07-30T06:23:06.139Z,601
2018-07-30T06:24:06.856Z,596
2018-07-30T06:25:07.584Z,601
2018-07-30T06:26:08.306Z,613
2018-07-30T06:27:09.048Z,613
2018-07-30T06:28:09.773Z,618
2018-07-30T06:29:10.524Z,618
2018-07-30T06:30:11.244Z,596
2018-07-30T06:31:12.013Z,590
2018-07-30T06:32:12.743Z,573
2018-07-30T06:33:13.475Z,556
2018-07-30T06:34:14.206Z,523
2018-07-30T06:35:14.933Z,483
2018-07-30T06:36:15.687Z,483
2018-07-30T06:37:16.414Z,466
2018-07-30T06:38:17.156Z,495
2018-07-30T06:39:17.881Z,517
2018-07-30T06:40:18.603Z,534
2018-07-30T06:41:19.346Z,545
2018-07-30T06:42:20.076Z,455
2018-07-30T06:43:20.822Z,444
2018-07-30T06:44:21.559Z,427
2018-07-30T06:45:22.299Z,416
2018-07-30T06:46:23.022Z,405
2018-07-30T06:47:23.770Z,393
2018-07-30T06:48:24.510Z,382
2018-07-30T06:49:25.262Z,376
2018-07-30T06:50:26.016Z,376
2018-07-30T06:51:26.744Z,376
2018-07-30T06:52:27.474Z,371
2018-07-30T06:53:28.205Z,371
2018-07-30T06:54:28.959Z,371
2018-07-30T06:55:30.041Z,371
2018-07-30T06:56:30.768Z,348
2018-07-30T06:57:31.496Z,376
2018-07-30T06:58:32.226Z,343
2018-07-30T06:59:32.961Z,360
2018-07-30T07:00:33.690Z,360
2018-07-30T07:01:34.421Z,360
2018-07-30T07:02:35.418Z,360
2018-07-30T07:03:36.148Z,371
2018-07-30T07:04:36.887Z,393
2018-07-30T07:05:37.617Z,405
2018-07-30T07:06:38.356Z,399
2018-07-30T07:07:39.346Z,405
2018-07-30T07:08:40.086Z,393
2018-07-30T07:09:40.819Z,399
2018-07-30T07:10:41.535Z,427
2018-07-30T07:11:42.322Z,421
2018-07-30T07:12:43.061Z,416
2018-07-30T07:13:43.804Z,416
2018-07-30T07:14:44.558Z,410
2018-07-30T07:15:45.280Z,405
2018-07-30T07:16:46.062Z,450
2018-07-30T07:17:46.766Z,405
2018-07-30T07:18:47.514Z,405
2018-07-30T07:19:48.246Z,405
2018-07-30T07:20:49.052Z,405
2018-07-30T07:21:51.120Z,405
2018-07-30T07:22:51.406Z,399
2018-07-30T07:23:52.186Z,405
2018-07-30T07:24:52.931Z,410
2018-07-30T07:25:54.164Z,405
2018-07-30T07:26:54.951Z,399
2018-07-30T07:27:55.641Z,472
2018-07-30T07:28:56.350Z,466
2018-07-30T07:29:57.072Z,500
2018-07-30T07:30:57.820Z,675
2018-07-30T07:31:58.556Z,1119
2018-07-30T07:32:59.282Z,888
2018-07-30T07:34:00.028Z,995
2018-07-30T07:35:00.789Z,1282
2018-07-30T07:36:01.501Z,1063
2018-07-30T07:37:02.225Z,1074
2018-07-30T07:38:02.974Z,669
2018-07-30T07:39:03.707Z,483
2018-07-30T07:40:04.452Z,736
2018-07-30T07:41:05.201Z,1355
2018-07-30T07:42:05.926Z,697
2018-07-30T07:43:06.903Z,916
2018-07-30T07:44:07.648Z,1496
2018-07-30T07:45:08.399Z,1102
2018-07-30T07:46:09.125Z,596
2018-07-30T07:47:10.117Z,883
2018-07-30T07:48:10.864Z,1305
2018-07-30T07:49:11.593Z,2036
2018-07-30T07:50:12.467Z,2373
2018-07-30T07:51:13.193Z,2418
2018-07-30T07:52:13.868Z,2435
2018-07-30T07:53:14.595Z,2446
2018-07-30T07:54:15.335Z,2441
2018-07-30T07:55:16.088Z,2435
2018-07-30T07:56:16.822Z,2401
2018-07-30T07:57:17.558Z,2385
2018-07-30T07:58:18.288Z,2407
2018-07-30T07:59:19.336Z,2446
2018-07-30T08:00:20.126Z,2480
2018-07-30T08:01:20.863Z,2469
2018-07-30T08:02:21.599Z,2458
2018-07-30T08:03:22.341Z,2418
2018-07-30T08:04:23.078Z,2413
2018-07-30T08:05:23.867Z,2401
2018-07-30T08:06:24.601Z,2413
2018-07-30T08:07:25.334Z,2413
2018-07-30T08:08:26.083Z,2424
2018-07-30T08:09:26.825Z,2475
2018-07-30T08:10:27.639Z,2542
2018-07-30T08:11:28.377Z,2643
2018-07-30T08:12:29.132Z,2671
2018-07-30T08:13:29.910Z,2728
2018-07-30T08:14:30.650Z,2773
2018-07-30T08:15:31.396Z,2790
2018-07-30T08:16:32.126Z,2812
2018-07-30T08:17:32.854Z,2835
2018-07-30T08:18:33.640Z,2818
2018-07-30T08:19:34.378Z,2790
2018-07-30T08:20:35.111Z,2716
2018-07-30T08:21:35.867Z,2700
2018-07-30T08:22:36.607Z,2666
2018-07-30T08:23:37.351Z,2739
2018-07-30T08:24:38.084Z,2835
2018-07-30T08:25:38.819Z,2868
2018-07-30T08:26:39.552Z,2818
2018-07-30T08:27:40.297Z,2745
2018-07-30T08:28:41.051Z,2677
2018-07-30T08:29:41.799Z,2598
2018-07-30T08:30:42.521Z,2548
2018-07-30T08:31:43.264Z,2514
2018-07-30T08:32:44.247Z,2531
2018-07-30T08:33:45.239Z,2553
2018-07-30T08:34:45.975Z,2576
2018-07-30T08:35:46.715Z,2626
2018-07-30T08:36:47.465Z,2666
2018-07-30T08:37:48.265Z,2722
2018-07-30T08:38:49.296Z,2801
2018-07-30T08:39:50.048Z,2846
2018-07-30T08:40:50.786Z,2919
2018-07-30T08:41:51.543Z,3003
2018-07-30T08:42:52.263Z,3093
2018-07-30T08:43:53.012Z,3133
2018-07-30T08:44:53.744Z,3093
2018-07-30T08:45:54.488Z,3088
2018-07-30T08:46:55.238Z,3121
2018-07-30T08:47:56.403Z,3144
2018-07-30T08:48:57.486Z,3166
2018-07-30T08:49:58.132Z,3223
2018-07-30T08:50:58.879Z,3273
2018-07-30T08:51:59.621Z,3290
2018-07-30T08:53:00.355Z,3251
2018-07-30T08:54:01.106Z,3268
2018-07-30T08:55:01.833Z,3245
2018-07-30T08:56:02.574Z,3234
2018-07-30T08:57:03.315Z,3240
2018-07-30T08:58:04.062Z,3240
2018-07-30T08:59:04.814Z,3251
2018-07-30T09:00:05.807Z,3211
2018-07-30T09:01:06.554Z,3155
2018-07-30T09:02:07.303Z,3065
2018-07-30T09:03:08.042Z,3009
2018-07-30T09:04:08.781Z,2941
2018-07-30T09:05:09.513Z,2818
2018-07-30T09:06:10.247Z,2716
2018-07-30T09:07:11.041Z,2694
2018-07-30T09:08:11.767Z,2733
2018-07-30T09:09:12.498Z,2818
2018-07-30T09:10:13.231Z,2970
2018-07-30T09:11:13.965Z,3060
2018-07-30T09:12:14.715Z,3211
2018-07-30T09:13:15.469Z,3240
2018-07-30T09:14:16.205Z,3268
2018-07-30T09:15:17.192Z,3251
2018-07-30T09:16:17.927Z,3228
2018-07-30T09:17:18.778Z,3172
2018-07-30T09:18:19.478Z,3076
2018-07-30T09:19:20.163Z,3003
2018-07-30T09:20:20.897Z,2913
2018-07-30T09:21:21.675Z,2835
2018-07-30T09:22:22.417Z,2795
2018-07-30T09:23:23.166Z,2930
2018-07-30T09:24:23.901Z,3076
2018-07-30T09:25:24.907Z,3161
2018-07-30T09:26:25.701Z,3268
2018-07-30T09:27:26.438Z,3425
2018-07-30T09:28:27.170Z,3465
2018-07-30T09:29:27.914Z,3436
2018-07-30T09:30:28.647Z,3431
2018-07-30T09:31:29.386Z,3375
2018-07-30T09:32:30.124Z,3375
2018-07-30T09:33:30.869Z,3211
2018-07-30T09:34:31.607Z,3335
2018-07-30T09:35:32.398Z,3375
2018-07-30T09:36:33.127Z,3358
2018-07-30T09:37:33.865Z,3256
2018-07-30T09:38:34.615Z,2925
2018-07-30T09:39:35.377Z,3043
2018-07-30T09:40:36.091Z,3313
2018-07-30T09:41:36.830Z,3701
2018-07-30T09:42:37.565Z,3881
2018-07-30T09:43:38.327Z,3088
2018-07-30T09:44:39.155Z,3183
2018-07-30T09:45:39.810Z,2666
2018-07-30T09:46:40.554Z,3420
2018-07-30T09:47:41.298Z,3133
2018-07-30T09:48:42.033Z,3048
2018-07-30T09:49:42.775Z,3116
2018-07-30T09:50:43.568Z,3155
2018-07-30T09:51:44.309Z,3262
2018-07-30T09:52:45.067Z,3453
2018-07-30T09:53:45.845Z,3678
2018-07-30T09:54:46.550Z,3920
2018-07-30T09:55:47.284Z,4078
2018-07-30T09:56:48.269Z,4134
2018-07-30T09:57:49.010Z,3920
2018-07-30T09:58:49.740Z,3881
2018-07-30T09:59:50.729Z,3931
2018-07-30T10:00:51.464Z,4359
2018-07-30T10:01:52.203Z,4297
2018-07-30T10:02:52.962Z,4325
2018-07-30T10:03:53.706Z,3808
2018-07-30T10:04:54.451Z,4218
2018-07-30T10:05:55.207Z,4207
2018-07-30T10:06:55.939Z,4123
2018-07-30T10:07:56.681Z,4010
2018-07-30T10:08:57.779Z,3954
2018-07-30T10:09:58.532Z,3875
2018-07-30T10:10:59.275Z,3836
2018-07-30T10:12:00.019Z,3836
2018-07-30T10:13:00.750Z,3751
2018-07-30T10:14:01.496Z,3425
2018-07-30T10:15:02.230Z,3999
2018-07-30T10:16:02.982Z,4111
2018-07-30T10:17:03.720Z,3965
2018-07-30T10:18:04.529Z,3898
2018-07-30T10:19:05.266Z,4005
2018-07-30T10:20:06.015Z,4168
2018-07-30T10:21:06.753Z,3532
2018-07-30T10:22:07.501Z,4083
2018-07-30T10:23:08.235Z,3645
2018-07-30T10:24:08.992Z,4021
2018-07-30T10:25:09.737Z,3909
2018-07-30T10:26:10.510Z,4083
2018-07-30T10:27:11.254Z,4033
2018-07-30T10:28:11.993Z,4128
2018-07-30T10:29:12.730Z,3971
2018-07-30T10:30:13.856Z,3144
2018-07-30T10:31:14.569Z,4252
2018-07-30T10:32:15.315Z,3324
2018-07-30T10:33:16.066Z,3313
2018-07-30T10:34:16.803Z,3560
2018-07-30T10:35:17.543Z,3943
2018-07-30T10:36:18.289Z,3566
2018-07-30T10:37:19.038Z,3611
2018-07-30T10:38:19.967Z,2553
2018-07-30T10:39:20.579Z,2885
2018-07-30T10:40:21.327Z,2311
2018-07-30T10:41:22.069Z,4168
2018-07-30T10:42:22.813Z,2919
2018-07-30T10:43:23.554Z,2677
2018-07-30T10:44:24.296Z,2238
2018-07-30T10:45:25.049Z,4072
2018-07-30T10:46:25.846Z,4123
2018-07-30T10:47:26.537Z,3611
2018-07-30T10:48:27.328Z,3999
2018-07-30T10:49:28.070Z,3976
2018-07-30T10:50:28.811Z,3903
2018-07-30T10:51:29.553Z,3853
2018-07-30T10:52:30.293Z,3853
2018-07-30T10:53:31.049Z,3903
2018-07-30T10:54:31.798Z,3976
2018-07-30T10:55:32.546Z,2390
2018-07-30T10:56:33.279Z,3549
2018-07-30T10:57:34.030Z,3481
2018-07-30T10:58:34.762Z,3071
2018-07-30T10:59:35.755Z,2857
2018-07-30T11:00:36.508Z,2486
2018-07-30T11:01:37.259Z,3448
2018-07-30T11:02:37.999Z,2953
2018-07-30T11:03:38.744Z,3487
2018-07-30T11:04:39.484Z,3425
2018-07-30T11:05:40.222Z,2840
2018-07-30T11:06:40.973Z,1783
2018-07-30T11:07:41.761Z,2998
2018-07-30T11:08:42.465Z,3746
2018-07-30T11:09:43.264Z,3088
2018-07-30T11:10:43.951Z,4050
2018-07-30T11:11:44.709Z,3808
2018-07-30T11:12:45.455Z,1912
2018-07-30T11:13:46.203Z,1479
2018-07-30T11:14:46.959Z,2970
2018-07-30T11:15:47.686Z,2463
2018-07-30T11:16:48.432Z,1400
2018-07-30T11:17:49.165Z,2272
2018-07-30T11:18:49.970Z,1805
2018-07-30T11:19:50.667Z,1653
2018-07-30T11:20:51.419Z,1591
2018-07-30T11:21:52.164Z,2047
2018-07-30T11:22:52.922Z,2283
2018-07-30T11:23:53.675Z,1845
2018-07-30T11:24:54.422Z,2047
2018-07-30T11:25:55.162Z,2019
2018-07-30T11:26:56.219Z,1755
2018-07-30T11:27:57.020Z,1833
2018-07-30T11:28:57.701Z,2036
2018-07-30T11:29:58.448Z,2109
2018-07-30T11:30:59.189Z,1850
2018-07-30T11:31:59.982Z,2092
2018-07-30T11:33:00.716Z,3268
2018-07-30T11:34:01.461Z,3768
2018-07-30T11:35:02.198Z,3931
2018-07-30T11:36:03.186Z,1766
2018-07-30T11:37:03.927Z,2356
2018-07-30T11:38:04.664Z,3982
2018-07-30T11:39:05.436Z,3600
2018-07-30T11:40:06.185Z,4286
2018-07-30T11:41:06.928Z,1828
2018-07-30T11:42:07.668Z,1845
2018-07-30T11:43:08.671Z,4376
2018-07-30T11:44:09.469Z,3864
2018-07-30T11:45:10.202Z,4246
2018-07-30T11:46:10.940Z,3060
2018-07-30T11:47:11.681Z,3346
2018-07-30T11:48:12.425Z,3155
2018-07-30T11:49:13.162Z,1265
2018-07-30T11:50:13.916Z,1136
2018-07-30T11:51:14.651Z,1057
2018-07-30T11:52:15.412Z,1018
2018-07-30T11:53:16.140Z,978
2018-07-30T11:54:16.936Z,995
2018-07-30T11:55:17.632Z,3943
2018-07-30T11:56:18.425Z,4038
2018-07-30T11:57:19.163Z,4021
2018-07-30T11:58:19.909Z,3993
2018-07-30T11:59:20.646Z,3673
2018-07-30T12:00:21.382Z,1057
2018-07-30T12:01:22.191Z,911
2018-07-30T12:02:22.860Z,905
2018-07-30T12:03:23.603Z,1023
2018-07-30T12:04:24.336Z,2469
2018-07-30T12:05:25.084Z,2891
2018-07-30T12:06:25.834Z,3234
2018-07-30T12:07:26.820Z,1738
2018-07-30T12:08:27.863Z,1248
2018-07-30T12:09:28.610Z,1203
2018-07-30T12:10:29.369Z,4083
2018-07-30T12:11:30.095Z,4246
2018-07-30T12:12:30.841Z,4241
2018-07-30T12:13:31.668Z,3532
2018-07-30T12:14:32.336Z,3656
2018-07-30T12:15:33.093Z,3661
2018-07-30T12:16:33.861Z,3791
2018-07-30T12:17:34.603Z,3825
2018-07-30T12:18:35.395Z,3847
2018-07-30T12:19:36.125Z,4010
2018-07-30T12:20:36.868Z,4016
2018-07-30T12:21:37.620Z,1276
2018-07-30T12:22:38.343Z,2941
2018-07-30T12:23:39.130Z,3431
2018-07-30T12:24:39.881Z,4151
2018-07-30T12:25:40.625Z,2728
2018-07-30T12:26:41.374Z,2233
2018-07-30T12:27:42.122Z,1929
2018-07-30T12:28:42.870Z,2835
2018-07-30T12:29:43.617Z,3898
2018-07-30T12:30:44.443Z,2970
2018-07-30T12:31:45.114Z,4095
2018-07-30T12:32:45.848Z,4016
2018-07-30T12:33:46.590Z,3960
2018-07-30T12:34:47.629Z,3937
2018-07-30T12:35:48.371Z,3313
2018-07-30T12:36:49.109Z,2711
2018-07-30T12:37:49.856Z,2300
2018-07-30T12:38:50.635Z,2446
2018-07-30T12:39:51.620Z,1102
2018-07-30T12:40:52.342Z,1417
2018-07-30T12:41:53.438Z,3622
2018-07-30T12:42:54.190Z,3600
2018-07-30T12:43:54.916Z,3605
2018-07-30T12:44:56.071Z,3633
2018-07-30T12:45:56.757Z,3729
2018-07-30T12:46:57.751Z,3661
2018-07-30T12:47:58.512Z,3256
2018-07-30T12:48:59.246Z,3363
2018-07-30T12:49:59.982Z,3588
2018-07-30T12:51:00.714Z,3605
2018-07-30T12:52:01.463Z,3470
2018-07-30T12:53:02.211Z,3391
2018-07-30T12:54:02.933Z,3358
2018-07-30T12:55:03.674Z,3375
2018-07-30T12:56:04.713Z,3386
2018-07-30T12:57:05.468Z,3397
2018-07-30T12:58:06.212Z,3408
2018-07-30T12:59:06.985Z,3414
2018-07-30T13:00:07.736Z,3408
2018-07-30T13:01:08.541Z,3465
2018-07-30T13:02:09.281Z,3493
2018-07-30T13:03:10.095Z,3571
2018-07-30T13:04:10.777Z,2784
2018-07-30T13:05:11.539Z,1575
2018-07-30T13:06:12.631Z,1344
2018-07-30T13:07:13.386Z,916
2018-07-30T13:08:14.116Z,888
2018-07-30T13:09:14.849Z,3318
2018-07-30T13:10:15.608Z,3228
2018-07-30T13:11:16.349Z,3116
2018-07-30T13:12:17.103Z,3026
2018-07-30T13:13:17.841Z,2891
2018-07-30T13:14:18.585Z,2340
2018-07-30T13:15:19.589Z,2064
2018-07-30T13:16:20.324Z,3571
2018-07-30T13:17:21.074Z,3645
2018-07-30T13:18:21.817Z,3656
2018-07-30T13:19:22.789Z,3684
2018-07-30T13:20:23.652Z,3622
2018-07-30T13:21:24.771Z,3600
2018-07-30T13:22:25.492Z,3583
2018-07-30T13:23:26.489Z,3667
2018-07-30T13:24:27.223Z,2379
2018-07-30T13:25:27.978Z,3802
2018-07-30T13:26:28.833Z,3735
2018-07-30T13:27:29.516Z,3746
2018-07-30T13:28:30.522Z,3701
2018-07-30T13:29:31.264Z,1546
2018-07-30T13:30:32.016Z,2947
2018-07-30T13:31:32.762Z,2908
2018-07-30T13:32:33.536Z,3695
2018-07-30T13:33:34.259Z,3650
2018-07-30T13:34:35.001Z,1456
2018-07-30T13:35:35.740Z,1395
2018-07-30T13:36:36.495Z,1417
2018-07-30T13:37:37.251Z,1333
2018-07-30T13:38:38.009Z,1282
2018-07-30T13:39:38.754Z,1141
2018-07-30T13:40:39.988Z,1147
2018-07-30T13:41:40.838Z,1209
2018-07-30T13:42:41.584Z,1305
2018-07-30T13:43:42.331Z,1743
2018-07-30T13:44:43.091Z,1254
2018-07-30T13:45:43.833Z,1164
2018-07-30T13:46:44.578Z,1130
2018-07-30T13:47:45.331Z,1164
2018-07-30T13:48:46.072Z,1192
2018-07-30T13:49:46.808Z,1175
2018-07-30T13:50:47.949Z,1147
2018-07-30T13:51:49.022Z,1153
2018-07-30T13:52:49.794Z,1170
2018-07-30T13:53:50.920Z,1158
2018-07-30T13:54:51.907Z,1125
2018-07-30T13:55:52.689Z,1102
2018-07-30T13:56:53.457Z,1080
2018-07-30T13:57:54.626Z,2756
2018-07-30T13:58:55.445Z,1175
2018-07-30T13:59:56.225Z,900
2018-07-30T14:00:56.935Z,871